Time;durP1;ratioP1;P1;durP2;ratioP2;P2;SDS_P1;SDS_P2;PMS_P1;PMS_P2;Temp;Humidity;BMP_temperature;BMP_pressure;BME280_temperature;BME280_humidity;BME280_pressure;Samples;Min_cycle;Max_cycle;Signal;HPM_P1;HPM_P2
2022/03/15 00:01:19;;;;;;;;;;;8.70;99.90;;;;;;5012436;28;19909;-68
2022/03/15 00:03:46;;;;;;;;;;;8.60;99.90;;;;;;4993967;28;19936;-68
2022/03/15 00:06:11;;;;;;;;;;;8.50;99.90;;;;;;5009515;28;19937;-69
2022/03/15 00:08:37;;;;;;;;;;;8.60;99.90;;;;;;4990842;28;19914;-68
2022/03/15 00:11:05;;;;;;;;;;;8.70;99.90;;;;;;4975159;28;19959;-69
2022/03/15 00:13:38;;;;;;;;;;;8.60;99.90;;;;;;4974631;28;20365;-69
2022/03/15 00:16:04;;;;;;;;;;;8.70;99.90;;;;;;4987537;28;20354;-67
2022/03/15 00:18:30;;;;;;;;;;;8.70;99.90;;;;;;4993847;28;19977;-68
2022/03/15 00:21:00;;;;;;;;;;;8.70;99.90;;;;;;4994369;28;20007;-67
2022/03/15 00:23:26;;;;;;;;;;;8.50;99.90;;;;;;5004605;28;19924;-69
2022/03/15 00:25:52;;;;;;;;;;;8.50;99.90;;;;;;4994313;28;19909;-70
2022/03/15 00:28:19;;;;;;;;;;;8.50;99.90;;;;;;4994379;28;19913;-68
2022/03/15 00:30:44;;;;;;;;;;;8.30;99.90;;;;;;4993738;28;19943;-68
2022/03/15 00:33:11;;;;;;;;;;;8.30;99.90;;;;;;4994393;28;19956;-68
2022/03/15 00:35:36;;;;;;;;;;;8.40;99.90;;;;;;4993755;28;19909;-68
2022/03/15 00:38:02;;;;;;;;;;;8.40;99.90;;;;;;5011628;28;19936;-69
2022/03/15 00:40:28;;;;;;;;;;;8.40;99.90;;;;;;4993795;28;19920;-70
2022/03/15 00:42:54;;;;;;;;;;;8.30;99.90;;;;;;4993961;28;20007;-69
2022/03/15 00:45:22;;;;;;;;;;;8.40;99.90;;;;;;4993758;28;19957;-68
2022/03/15 00:47:51;;;;;;;;;;;8.40;99.90;;;;;;5011123;28;19972;-68
2022/03/15 00:50:17;;;;;;;;;;;8.30;99.90;;;;;;5011387;28;19960;-68
2022/03/15 00:52:44;;;;;;;;;;;8.20;99.90;;;;;;5010839;28;19910;-68
2022/03/15 00:55:09;;;;;;;;;;;8.30;99.90;;;;;;5011467;28;20385;-68
2022/03/15 00:57:35;;;;;;;;;;;8.40;99.90;;;;;;5010630;28;19918;-68
2022/03/15 01:00:01;;;;;;;;;;;8.40;99.90;;;;;;4993825;28;20000;-68
2022/03/15 01:02:26;;;;;;;;;;;8.20;99.90;;;;;;5011785;28;19952;-68
2022/03/15 01:04:52;;;;;;;;;;;8.30;99.90;;;;;;4993021;28;19918;-69
2022/03/15 01:07:17;;;;;;;;;;;8.20;99.90;;;;;;4999358;28;20385;-68
2022/03/15 01:09:43;;;;;;;;;;;8.00;99.90;;;;;;4991726;28;19910;-68
2022/03/15 01:12:08;;;;;;;;;;;7.90;99.90;;;;;;4990863;28;20271;-70
2022/03/15 01:14:35;;;;;;;;;;;8.10;99.90;;;;;;4992741;28;19933;-68
2022/03/15 01:17:02;;;;;;;;;;;8.10;99.90;;;;;;5010957;28;19913;-68
2022/03/15 01:19:28;;;;;;;;;;;8.10;99.90;;;;;;4993350;28;20012;-67
2022/03/15 01:21:53;;;;;;;;;;;8.20;99.90;;;;;;5010425;28;19914;-67
2022/03/15 01:24:19;;;;;;;;;;;8.10;99.90;;;;;;4992666;28;19938;-68
2022/03/15 01:26:45;;;;;;;;;;;8.20;99.90;;;;;;4989753;28;20269;-68
2022/03/15 01:29:11;;;;;;;;;;;7.90;99.90;;;;;;4974304;28;20243;-68
2022/03/15 01:31:36;;;;;;;;;;;7.70;99.90;;;;;;4989571;28;19910;-68
2022/03/15 01:34:02;;;;;;;;;;;7.80;99.90;;;;;;4991912;28;19982;-66
2022/03/15 01:36:28;;;;;;;;;;;7.80;99.90;;;;;;4991023;28;20016;-68
2022/03/15 01:38:55;;;;;;;;;;;7.90;99.90;;;;;;4991517;28;19918;-68
2022/03/15 01:41:21;;;;;;;;;;;8.00;99.90;;;;;;5010681;28;20043;-68
2022/03/15 01:43:47;;;;;;;;;;;8.00;99.90;;;;;;4992771;28;19909;-68
2022/03/15 01:46:13;;;;;;;;;;;8.00;99.90;;;;;;4993401;28;20250;-69
2022/03/15 01:48:39;;;;;;;;;;;7.90;99.90;;;;;;4998769;28;19910;-68
2022/03/15 01:51:05;;;;;;;;;;;7.90;99.90;;;;;;5005500;28;19909;-69
2022/03/15 01:53:31;;;;;;;;;;;7.90;99.90;;;;;;4997066;28;19932;-71
2022/03/15 01:55:57;;;;;;;;;;;7.80;99.90;;;;;;5014381;28;20350;-68
2022/03/15 01:58:22;;;;;;;;;;;7.90;99.90;;;;;;4996688;28;19944;-68
2022/03/15 02:00:48;;;;;;;;;;;7.90;99.90;;;;;;5013761;28;19926;-68
2022/03/15 02:03:14;;;;;;;;;;;7.90;99.90;;;;;;5004646;28;20335;-68
2022/03/15 02:05:39;;;;;;;;;;;7.90;99.90;;;;;;4994275;28;19910;-67
2022/03/15 02:08:10;;;;;;;;;;;8.00;99.90;;;;;;5007522;28;19956;-68
2022/03/15 02:10:35;;;;;;;;;;;7.90;99.90;;;;;;4993196;28;19910;-70
2022/03/15 02:13:01;;;;;;;;;;;8.00;99.90;;;;;;4992776;28;19913;-68
2022/03/15 02:15:26;;;;;;;;;;;8.00;99.90;;;;;;4993105;28;19972;-67
2022/03/15 02:17:52;;;;;;;;;;;8.00;99.90;;;;;;4994266;28;19979;-68
2022/03/15 02:20:17;;;;;;;;;;;8.00;99.90;;;;;;4994273;28;19925;-68
2022/03/15 02:22:43;;;;;;;;;;;8.10;99.90;;;;;;4992514;28;19910;-68
2022/03/15 02:25:08;;;;;;;;;;;8.00;99.90;;;;;;4994036;28;19933;-69
2022/03/15 02:27:34;;;;;;;;;;;8.00;99.90;;;;;;4993660;28;20362;-69
2022/03/15 02:30:00;;;;;;;;;;;8.00;99.90;;;;;;4992720;28;19910;-68
2022/03/15 02:32:26;;;;;;;;;;;8.00;99.90;;;;;;4994311;28;19973;-68
2022/03/15 02:34:52;;;;;;;;;;;7.90;99.90;;;;;;4993616;28;19917;-68
2022/03/15 02:37:18;;;;;;;;;;;7.90;99.90;;;;;;4993057;28;19957;-68
2022/03/15 02:39:43;;;;;;;;;;;7.90;99.90;;;;;;4994455;28;20321;-70
2022/03/15 02:42:09;;;;;;;;;;;7.90;99.90;;;;;;5013707;28;19983;-67
2022/03/15 02:44:34;;;;;;;;;;;8.00;99.90;;;;;;4995706;28;19910;-70
2022/03/15 02:47:00;;;;;;;;;;;7.90;99.90;;;;;;4995330;28;19917;-69
2022/03/15 02:49:25;;;;;;;;;;;7.90;99.90;;;;;;4996048;28;19963;-68
2022/03/15 02:51:51;;;;;;;;;;;7.90;99.90;;;;;;4995097;28;19909;-67
2022/03/15 02:54:16;;;;;;;;;;;7.90;99.90;;;;;;5013563;28;19918;-68
2022/03/15 02:56:43;;;;;;;;;;;7.90;99.90;;;;;;4994976;28;19924;-68
2022/03/15 02:59:09;;;;;;;;;;;8.00;99.90;;;;;;5013689;28;20015;-68
2022/03/15 03:01:35;;;;;;;;;;;8.00;99.90;;;;;;4994883;28;20266;-71
2022/03/15 03:04:01;;;;;;;;;;;7.90;99.90;;;;;;5012420;28;19910;-68
2022/03/15 03:06:27;;;;;;;;;;;8.00;99.90;;;;;;5008773;28;19914;-69
2022/03/15 03:08:52;;;;;;;;;;;8.00;99.90;;;;;;4994235;28;19909;-67
2022/03/15 03:11:18;;;;;;;;;;;8.00;99.90;;;;;;4995025;28;19909;-68
2022/03/15 03:13:44;;;;;;;;;;;7.90;99.90;;;;;;4993856;28;19921;-68
2022/03/15 03:16:13;;;;;;;;;;;7.90;99.90;;;;;;4995472;28;19997;-68
2022/03/15 03:18:39;;;;;;;;;;;7.90;99.90;;;;;;4994659;28;19918;-71
2022/03/15 03:21:05;;;;;;;;;;;7.90;99.90;;;;;;5012411;28;19956;-68
2022/03/15 03:23:33;;;;;;;;;;;7.90;99.90;;;;;;4994855;28;19941;-68
2022/03/15 03:25:59;;;;;;;;;;;8.00;99.90;;;;;;4994568;28;19906;-69
2022/03/15 03:28:25;;;;;;;;;;;8.10;99.90;;;;;;4995367;28;20008;-68
2022/03/15 03:30:50;;;;;;;;;;;8.00;99.90;;;;;;4994299;28;20370;-69
2022/03/15 03:33:16;;;;;;;;;;;8.00;99.90;;;;;;4994797;28;19910;-68
2022/03/15 03:35:43;;;;;;;;;;;8.20;99.90;;;;;;4994647;28;19985;-69
2022/03/15 03:38:09;;;;;;;;;;;8.10;99.90;;;;;;4994782;28;19935;-68
2022/03/15 03:40:34;;;;;;;;;;;8.00;99.90;;;;;;5011991;28;20421;-68
2022/03/15 03:43:00;;;;;;;;;;;8.00;99.90;;;;;;5011552;28;20080;-67
2022/03/15 03:45:26;;;;;;;;;;;8.00;99.90;;;;;;4994840;28;20350;-69
2022/03/15 03:47:52;;;;;;;;;;;8.00;99.90;;;;;;5012098;28;19916;-69
2022/03/15 03:50:17;;;;;;;;;;;8.10;99.90;;;;;;5012529;28;20230;-69
2022/03/15 03:52:43;;;;;;;;;;;8.10;99.90;;;;;;5011114;28;19910;-68
2022/03/15 03:55:09;;;;;;;;;;;8.00;99.90;;;;;;5013085;28;19918;-68
2022/03/15 03:57:34;;;;;;;;;;;8.00;99.90;;;;;;4994165;28;19913;-68
2022/03/15 04:00:00;;;;;;;;;;;7.60;99.90;;;;;;4994244;28;19909;-69
2022/03/15 04:02:26;;;;;;;;;;;7.70;99.90;;;;;;4994666;28;19909;-68
2022/03/15 04:04:53;;;;;;;;;;;7.80;99.90;;;;;;4993774;28;19909;-68
2022/03/15 04:07:18;;;;;;;;;;;7.70;99.90;;;;;;4994535;28;20333;-68
2022/03/15 04:09:44;;;;;;;;;;;7.60;99.90;;;;;;5008450;28;19909;-69
2022/03/15 04:12:09;;;;;;;;;;;7.70;99.90;;;;;;4994330;28;20373;-68
2022/03/15 04:14:35;;;;;;;;;;;7.50;99.90;;;;;;5011490;28;20033;-68
2022/03/15 04:17:01;;;;;;;;;;;7.70;99.90;;;;;;5011167;28;19914;-68
2022/03/15 04:19:26;;;;;;;;;;;7.70;99.90;;;;;;5012030;28;19921;-67
2022/03/15 04:21:52;;;;;;;;;;;7.70;99.90;;;;;;4993488;28;19913;-68
2022/03/15 04:24:18;;;;;;;;;;;7.70;99.90;;;;;;4990779;28;19969;-69
2022/03/15 04:26:45;;;;;;;;;;;7.70;99.90;;;;;;4990155;28;20351;-69
2022/03/15 04:29:10;;;;;;;;;;;7.70;99.90;;;;;;4990872;28;20260;-68
2022/03/15 04:31:36;;;;;;;;;;;7.60;99.90;;;;;;4992001;28;19917;-68
2022/03/15 04:34:01;;;;;;;;;;;7.60;99.90;;;;;;4991035;28;19913;-70
2022/03/15 04:36:27;;;;;;;;;;;7.60;99.90;;;;;;4984446;28;19914;-68
2022/03/15 04:38:53;;;;;;;;;;;7.60;99.90;;;;;;4990033;28;19945;-70
2022/03/15 04:41:19;;;;;;;;;;;7.60;99.90;;;;;;4992061;28;20036;-68
2022/03/15 04:43:44;;;;;;;;;;;7.60;99.90;;;;;;4989333;28;19917;-69
2022/03/15 04:46:11;;;;;;;;;;;7.50;99.90;;;;;;4990772;28;19949;-68
2022/03/15 04:48:37;;;;;;;;;;;7.60;99.90;;;;;;4990629;28;19917;-68
2022/03/15 04:51:02;;;;;;;;;;;7.60;99.90;;;;;;4989834;28;19905;-68
2022/03/15 04:53:28;;;;;;;;;;;7.70;99.90;;;;;;4990051;28;19913;-67
2022/03/15 04:55:53;;;;;;;;;;;7.70;99.90;;;;;;4991021;28;19981;-67
2022/03/15 04:58:19;;;;;;;;;;;7.70;99.90;;;;;;4991769;28;20377;-68
2022/03/15 05:00:45;;;;;;;;;;;7.70;99.90;;;;;;4991107;28;20310;-70
2022/03/15 05:03:10;;;;;;;;;;;7.50;99.90;;;;;;4989788;28;19922;-67
2022/03/15 05:05:36;;;;;;;;;;;7.60;99.90;;;;;;4990169;28;20341;-68
2022/03/15 05:08:02;;;;;;;;;;;7.60;99.90;;;;;;4989661;28;20009;-68
2022/03/15 05:13:14;;;;;;;;;;;7.60;99.90;;;;;;4991970;28;19917;-69
2022/03/15 05:15:39;;;;;;;;;;;7.60;99.90;;;;;;4990600;28;20295;-68
2022/03/15 05:18:05;;;;;;;;;;;7.60;99.90;;;;;;4989060;28;19910;-67
2022/03/15 05:20:31;;;;;;;;;;;7.60;99.90;;;;;;4991397;28;20386;-67
2022/03/15 05:22:57;;;;;;;;;;;7.60;99.90;;;;;;4989491;28;20008;-68
2022/03/15 05:25:22;;;;;;;;;;;7.60;99.90;;;;;;4990682;28;19922;-69
2022/03/15 05:27:48;;;;;;;;;;;7.60;99.90;;;;;;4995126;28;20342;-69
2022/03/15 05:30:13;;;;;;;;;;;7.60;99.90;;;;;;4994383;28;19945;-68
2022/03/15 05:32:39;;;;;;;;;;;7.60;99.90;;;;;;4990513;28;19910;-68
2022/03/15 05:35:05;;;;;;;;;;;7.60;99.90;;;;;;4990212;28;19914;-68
2022/03/15 05:37:30;;;;;;;;;;;7.60;99.90;;;;;;4976006;28;20371;-66
2022/03/15 05:39:56;;;;;;;;;;;7.50;99.90;;;;;;4975111;28;20010;-67
2022/03/15 05:42:22;;;;;;;;;;;7.50;99.90;;;;;;4990653;28;19910;-68
2022/03/15 05:44:47;;;;;;;;;;;7.60;99.90;;;;;;4990083;28;19914;-71
2022/03/15 05:47:13;;;;;;;;;;;7.60;99.90;;;;;;4990605;28;19933;-68
2022/03/15 05:49:39;;;;;;;;;;;7.50;99.90;;;;;;4990449;28;20262;-67
2022/03/15 05:52:04;;;;;;;;;;;7.60;99.90;;;;;;4973062;28;20487;-68
2022/03/15 05:54:30;;;;;;;;;;;7.60;99.90;;;;;;4990434;28;19918;-68
2022/03/15 05:56:56;;;;;;;;;;;7.60;99.90;;;;;;4989281;28;19925;-68
2022/03/15 05:59:22;;;;;;;;;;;7.60;99.90;;;;;;4993022;28;19925;-68
2022/03/15 06:01:47;;;;;;;;;;;7.70;99.90;;;;;;4992069;28;19920;-71
2022/03/15 06:04:13;;;;;;;;;;;7.70;99.90;;;;;;4993061;28;19914;-68
2022/03/15 06:06:38;;;;;;;;;;;7.70;99.90;;;;;;4992930;28;20313;-68
2022/03/15 06:09:04;;;;;;;;;;;7.80;99.90;;;;;;4994226;28;20394;-68
2022/03/15 06:11:32;;;;;;;;;;;7.80;99.90;;;;;;4993044;28;19910;-69
2022/03/15 06:14:01;;;;;;;;;;;7.70;99.90;;;;;;4992358;28;19910;-68
2022/03/15 06:16:26;;;;;;;;;;;7.70;99.90;;;;;;4993229;28;19910;-67
2022/03/15 06:18:52;;;;;;;;;;;7.80;99.90;;;;;;4992257;28;19914;-70
2022/03/15 06:21:18;;;;;;;;;;;7.70;99.90;;;;;;4994522;28;19913;-68
2022/03/15 06:23:43;;;;;;;;;;;7.60;99.90;;;;;;4998418;28;19967;-69
2022/03/15 06:26:09;;;;;;;;;;;7.70;99.90;;;;;;4991814;28;19925;-68
2022/03/15 06:28:35;;;;;;;;;;;7.60;99.90;;;;;;4976386;28;20373;-70
2022/03/15 06:31:02;;;;;;;;;;;7.60;99.90;;;;;;4999126;28;19921;-68
2022/03/15 06:33:27;;;;;;;;;;;7.60;99.90;;;;;;4977860;28;20271;-69
2022/03/15 06:35:53;;;;;;;;;;;7.50;99.90;;;;;;4975629;28;19917;-69
2022/03/15 06:38:18;;;;;;;;;;;7.60;99.90;;;;;;4976200;28;19988;-69
2022/03/15 06:40:44;;;;;;;;;;;7.60;99.90;;;;;;4992317;28;19920;-68
2022/03/15 06:43:13;;;;;;;;;;;7.70;99.90;;;;;;5003196;28;20189;-69
2022/03/15 06:45:42;;;;;;;;;;;7.70;99.90;;;;;;5004692;28;19916;-70
2022/03/15 06:48:08;;;;;;;;;;;7.70;99.90;;;;;;4974964;28;20371;-69
2022/03/15 06:50:34;;;;;;;;;;;7.80;99.90;;;;;;4975491;28;19910;-71
2022/03/15 06:53:00;;;;;;;;;;;7.70;99.90;;;;;;4977344;28;20737;-70
2022/03/15 06:55:26;;;;;;;;;;;7.80;99.90;;;;;;4995089;28;20012;-62
2022/03/15 06:57:52;;;;;;;;;;;8.00;99.90;;;;;;4994674;28;19913;-66
2022/03/15 07:00:18;;;;;;;;;;;8.90;99.90;;;;;;4994512;28;19925;-70
2022/03/15 07:02:43;;;;;;;;;;;9.10;99.90;;;;;;4994993;28;19909;-68
2022/03/15 07:05:09;;;;;;;;;;;8.90;99.90;;;;;;4987625;28;19914;-68
2022/03/15 07:07:35;;;;;;;;;;;8.70;99.90;;;;;;4995342;28;19950;-69
2022/03/15 07:10:05;;;;;;;;;;;8.70;99.90;;;;;;4994547;28;19964;-69
2022/03/15 07:12:31;;;;;;;;;;;8.60;99.90;;;;;;5013175;28;20406;-69
2022/03/15 07:14:57;;;;;;;;;;;8.50;99.90;;;;;;5000589;28;20358;-69
2022/03/15 07:17:22;;;;;;;;;;;8.30;99.90;;;;;;4994987;28;19939;-68
2022/03/15 07:19:48;;;;;;;;;;;8.30;99.90;;;;;;5006764;28;20028;-68
2022/03/15 07:22:14;;;;;;;;;;;8.20;99.90;;;;;;4982583;28;20325;-68
2022/03/15 07:24:39;;;;;;;;;;;8.20;99.90;;;;;;4971975;28;19926;-68
2022/03/15 07:27:05;;;;;;;;;;;8.20;99.90;;;;;;4986838;28;20005;-70
2022/03/15 07:29:31;;;;;;;;;;;8.20;99.90;;;;;;4991577;28;19953;-68
2022/03/15 07:31:56;;;;;;;;;;;8.40;99.90;;;;;;4991990;28;20012;-69
2022/03/15 07:34:22;;;;;;;;;;;8.40;99.90;;;;;;4983267;28;20356;-67
2022/03/15 07:36:47;;;;;;;;;;;8.40;99.90;;;;;;4972081;28;19918;-69
2022/03/15 07:39:13;;;;;;;;;;;8.50;99.90;;;;;;4985977;28;19921;-69
2022/03/15 07:41:39;;;;;;;;;;;8.60;99.90;;;;;;4990817;28;19921;-69
2022/03/15 07:44:06;;;;;;;;;;;8.70;99.90;;;;;;4980229;28;19964;-68
2022/03/15 07:46:31;;;;;;;;;;;8.80;99.90;;;;;;4990808;28;19917;-68
2022/03/15 07:48:57;;;;;;;;;;;8.70;99.90;;;;;;4986299;28;19990;-70
2022/03/15 07:51:23;;;;;;;;;;;8.80;99.90;;;;;;4973996;28;19910;-74
2022/03/15 07:53:48;;;;;;;;;;;9.70;99.90;;;;;;4986653;28;19924;-72
2022/03/15 07:56:14;;;;;;;;;;;9.90;99.90;;;;;;4978233;28;19910;-68
2022/03/15 07:58:39;;;;;;;;;;;10.20;99.90;;;;;;4977469;28;19914;-69
2022/03/15 08:01:05;;;;;;;;;;;9.80;99.90;;;;;;4990631;28;19914;-68
2022/03/15 08:03:31;;;;;;;;;;;9.60;99.90;;;;;;4991199;28;19909;-68
2022/03/15 08:05:57;;;;;;;;;;;9.60;99.90;;;;;;4989431;28;19913;-68
2022/03/15 08:08:22;;;;;;;;;;;9.80;99.90;;;;;;4982237;28;19976;-69
2022/03/15 08:10:48;;;;;;;;;;;9.60;99.90;;;;;;4990711;28;19914;-68
2022/03/15 08:13:13;;;;;;;;;;;9.50;99.90;;;;;;4991609;28;19921;-69
2022/03/15 08:15:40;;;;;;;;;;;9.40;99.90;;;;;;4990641;28;19909;-68
2022/03/15 08:18:06;;;;;;;;;;;9.40;99.90;;;;;;4987055;28;19914;-66
2022/03/15 08:20:32;;;;;;;;;;;9.40;99.90;;;;;;4991108;28;19996;-69
2022/03/15 08:22:59;;;;;;;;;;;9.40;99.90;;;;;;4988594;28;19924;-71
2022/03/15 08:25:25;;;;;;;;;;;9.50;99.90;;;;;;5003978;28;19922;-69
2022/03/15 08:27:50;;;;;;;;;;;9.60;99.90;;;;;;5011846;28;19933;-62
2022/03/15 08:30:16;;;;;;;;;;;9.60;99.90;;;;;;5011058;28;20362;-62
2022/03/15 08:32:42;;;;;;;;;;;10.40;99.90;;;;;;5010178;28;20399;-69
2022/03/15 08:35:08;;;;;;;;;;;10.60;99.90;;;;;;4993058;28;19928;-68
2022/03/15 08:37:34;;;;;;;;;;;10.20;99.90;;;;;;5010179;28;20368;-69
2022/03/15 08:40:00;;;;;;;;;;;10.00;99.90;;;;;;5010601;28;20362;-69
2022/03/15 08:42:26;;;;;;;;;;;9.90;99.90;;;;;;4993118;28;19917;-69
2022/03/15 08:44:52;;;;;;;;;;;9.60;99.90;;;;;;4993147;28;19909;-69
2022/03/15 08:47:17;;;;;;;;;;;9.40;99.90;;;;;;4992865;28;20596;-73
2022/03/15 08:49:43;;;;;;;;;;;10.00;99.90;;;;;;4991217;28;19955;-73
2022/03/15 08:52:10;;;;;;;;;;;10.60;99.90;;;;;;4981866;28;19910;-72
2022/03/15 08:54:36;;;;;;;;;;;11.00;99.90;;;;;;4982023;28;19921;-74
2022/03/15 08:57:01;;;;;;;;;;;10.90;99.90;;;;;;4981344;28;19926;-69
2022/03/15 08:59:27;;;;;;;;;;;10.40;99.90;;;;;;4974259;28;20347;-69
2022/03/15 09:01:52;;;;;;;;;;;10.30;99.90;;;;;;4999302;28;19988;-69
2022/03/15 09:04:18;;;;;;;;;;;10.10;99.90;;;;;;4992511;28;20012;-69
2022/03/15 09:06:43;;;;;;;;;;;9.90;99.90;;;;;;5011246;28;19910;-69
2022/03/15 09:09:09;;;;;;;;;;;9.60;99.90;;;;;;4993262;28;19909;-68
2022/03/15 09:11:35;;;;;;;;;;;9.70;99.90;;;;;;5011307;28;20307;-69
2022/03/15 09:14:00;;;;;;;;;;;9.60;99.90;;;;;;5010250;28;19910;-71
2022/03/15 09:16:26;;;;;;;;;;;9.70;99.90;;;;;;5009865;28;20263;-68
2022/03/15 09:18:52;;;;;;;;;;;9.50;99.90;;;;;;5007296;28;20303;-69
2022/03/15 09:21:18;;;;;;;;;;;9.60;99.90;;;;;;4991511;28;20006;-69
2022/03/15 09:23:44;;;;;;;;;;;9.60;99.90;;;;;;4998880;28;19957;-69
2022/03/15 09:26:09;;;;;;;;;;;9.60;99.90;;;;;;4989324;28;19909;-69
2022/03/15 09:28:37;;;;;;;;;;;9.70;99.90;;;;;;4981508;28;19981;-68
2022/03/15 09:31:03;;;;;;;;;;;9.80;99.90;;;;;;4992290;28;19909;-69
2022/03/15 09:33:29;;;;;;;;;;;9.80;99.90;;;;;;4993733;28;19929;-68
2022/03/15 09:35:55;;;;;;;;;;;9.90;99.90;;;;;;4993454;28;19909;-69
2022/03/15 09:38:21;;;;;;;;;;;9.90;99.90;;;;;;4992945;28;19975;-70
2022/03/15 09:40:49;;;;;;;;;;;9.90;99.90;;;;;;5011131;28;20278;-68
2022/03/15 09:43:16;;;;;;;;;;;9.90;99.90;;;;;;4992574;28;19917;-69
2022/03/15 09:45:43;;;;;;;;;;;9.80;99.90;;;;;;4993218;28;19909;-68
2022/03/15 09:48:13;;;;;;;;;;;9.80;99.90;;;;;;4992533;28;20377;-68
2022/03/15 09:50:40;;;;;;;;;;;9.80;99.90;;;;;;4992795;28;19968;-69
2022/03/15 09:53:05;;;;;;;;;;;9.80;99.90;;;;;;4990698;28;20447;-69
2022/03/15 09:55:31;;;;;;;;;;;9.90;99.90;;;;;;4992900;28;19921;-68
2022/03/15 09:57:57;;;;;;;;;;;9.80;99.90;;;;;;4993241;28;20005;-68
2022/03/15 10:00:23;;;;;;;;;;;10.00;99.90;;;;;;4992077;28;20241;-69
2022/03/15 10:02:48;;;;;;;;;;;9.80;99.90;;;;;;4993353;28;19913;-69
2022/03/15 10:05:14;;;;;;;;;;;9.90;99.90;;;;;;5009356;28;19996;-69
2022/03/15 10:07:40;;;;;;;;;;;10.00;99.90;;;;;;4992942;28;19948;-68
2022/03/15 10:10:14;;;;;;;;;;;9.80;99.90;;;;;;4992484;28;19909;-69
2022/03/15 10:12:39;;;;;;;;;;;9.50;99.90;;;;;;4991176;28;19997;-69
2022/03/15 10:15:11;;;;;;;;;;;9.70;99.90;;;;;;4995763;28;19948;-70
2022/03/15 10:17:52;;;;;;;;;;;9.70;99.90;;;;;;4996599;28;19914;-70
2022/03/15 10:20:18;;;;;;;;;;;9.80;99.90;;;;;;4989761;28;19922;-68
2022/03/15 10:22:54;;;;;;;;;;;9.90;99.90;;;;;;5013645;28;19956;-68
2022/03/15 10:25:24;;;;;;;;;;;9.90;99.90;;;;;;4994956;28;20497;-67
2022/03/15 10:27:50;;;;;;;;;;;9.80;99.90;;;;;;5013785;28;19909;-69
2022/03/15 10:30:18;;;;;;;;;;;9.80;99.90;;;;;;4994785;28;24435;-69
2022/03/15 10:32:43;;;;;;;;;;;9.80;99.90;;;;;;4995722;28;19909;-69
2022/03/15 10:35:09;;;;;;;;;;;9.80;99.90;;;;;;4996035;28;19910;-69
2022/03/15 10:37:39;;;;;;;;;;;9.60;99.90;;;;;;4996100;28;19913;-70
2022/03/15 10:40:05;;;;;;;;;;;9.60;99.90;;;;;;4996022;28;19914;-69
2022/03/15 10:42:31;;;;;;;;;;;9.60;99.90;;;;;;5010860;28;20370;-68
2022/03/15 10:44:57;;;;;;;;;;;9.60;99.90;;;;;;4995683;28;20038;-68
2022/03/15 10:47:23;;;;;;;;;;;9.70;99.90;;;;;;4991958;28;20008;-69
2022/03/15 10:49:54;;;;;;;;;;;9.70;99.90;;;;;;4996085;28;20047;-69
2022/03/15 10:52:28;;;;;;;;;;;9.60;99.90;;;;;;4995570;28;19910;-71
2022/03/15 10:54:54;;;;;;;;;;;9.70;99.90;;;;;;5007388;28;19929;-70
2022/03/15 10:57:19;;;;;;;;;;;9.60;99.90;;;;;;5001092;28;19947;-69
2022/03/15 10:59:45;;;;;;;;;;;9.60;99.90;;;;;;4995708;28;20380;-70
2022/03/15 11:02:12;;;;;;;;;;;9.60;99.90;;;;;;5013451;28;20286;-71
2022/03/15 11:04:47;;;;;;;;;;;9.60;99.90;;;;;;4986538;28;19917;-70
2022/03/15 11:07:14;;;;;;;;;;;9.50;99.90;;;;;;4999712;28;19917;-66
2022/03/15 11:09:40;;;;;;;;;;;9.40;99.90;;;;;;5009110;28;19914;-68
2022/03/15 11:12:07;;;;;;;;;;;9.40;99.90;;;;;;5012363;28;19916;-69
2022/03/15 11:14:38;;;;;;;;;;;9.40;99.90;;;;;;4996111;28;19909;-68
2022/03/15 11:17:07;;;;;;;;;;;9.40;99.90;;;;;;5013080;28;20026;-71
2022/03/15 11:19:35;;;;;;;;;;;9.40;99.90;;;;;;5012986;28;19964;-69
2022/03/15 11:22:01;;;;;;;;;;;9.30;99.90;;;;;;5013363;28;19932;-69
2022/03/15 11:24:30;;;;;;;;;;;9.40;99.90;;;;;;4993490;28;19921;-69
2022/03/15 11:26:57;;;;;;;;;;;9.40;99.90;;;;;;4995813;28;19918;-69
2022/03/15 11:29:23;;;;;;;;;;;9.40;99.90;;;;;;5012765;28;19909;-68
2022/03/15 11:31:50;;;;;;;;;;;9.20;99.90;;;;;;5012981;28;20376;-68
2022/03/15 11:34:18;;;;;;;;;;;9.20;99.90;;;;;;5012553;28;19932;-67
2022/03/15 11:36:44;;;;;;;;;;;9.20;99.90;;;;;;4995804;28;19910;-69
2022/03/15 11:39:10;;;;;;;;;;;9.30;99.90;;;;;;4994641;28;19937;-69
2022/03/15 11:41:35;;;;;;;;;;;9.30;99.90;;;;;;5013216;28;20374;-68
2022/03/15 11:44:11;;;;;;;;;;;9.40;99.90;;;;;;4995513;28;19916;-68
2022/03/15 11:46:45;;;;;;;;;;;9.30;99.90;;;;;;5013223;28;19916;-67
2022/03/15 11:49:34;;;;;;;;;;;9.30;99.90;;;;;;4994902;28;19909;-68
2022/03/15 11:52:04;;;;;;;;;;;9.40;99.90;;;;;;4984549;28;19910;-68
2022/03/15 11:54:43;;;;;;;;;;;9.40;99.90;;;;;;4994754;28;19992;-69
2022/03/15 11:57:17;;;;;;;;;;;9.40;99.90;;;;;;4994564;28;19932;-68
2022/03/15 11:59:46;;;;;;;;;;;9.40;99.90;;;;;;4995522;28;20359;-68
2022/03/15 12:02:12;;;;;;;;;;;9.30;99.90;;;;;;4994436;28;19928;-68
2022/03/15 12:04:39;;;;;;;;;;;9.40;99.90;;;;;;4994995;28;19978;-70
2022/03/15 12:07:05;;;;;;;;;;;9.40;99.90;;;;;;4994718;28;19928;-68
2022/03/15 12:09:31;;;;;;;;;;;9.40;99.90;;;;;;5011750;28;19909;-68
2022/03/15 12:12:07;;;;;;;;;;;9.40;99.90;;;;;;5012441;28;19921;-68
2022/03/15 12:14:40;;;;;;;;;;;9.30;99.90;;;;;;5011948;28;19910;-69
2022/03/15 12:17:07;;;;;;;;;;;9.40;99.90;;;;;;5012128;28;20359;-68
2022/03/15 12:19:44;;;;;;;;;;;9.50;99.90;;;;;;4994229;28;19918;-68
2022/03/15 12:22:21;;;;;;;;;;;9.40;99.90;;;;;;5011046;28;20335;-68
2022/03/15 12:24:47;;;;;;;;;;;9.40;99.90;;;;;;5012124;28;19953;-68
2022/03/15 12:27:16;;;;;;;;;;;9.40;99.90;;;;;;5011128;28;20022;-69
2022/03/15 12:29:52;;;;;;;;;;;9.50;99.90;;;;;;4994472;28;19917;-69
2022/03/15 12:32:18;;;;;;;;;;;9.40;99.90;;;;;;4993187;28;19916;-68
2022/03/15 12:34:44;;;;;;;;;;;9.50;99.90;;;;;;5011775;28;19909;-68
2022/03/15 12:37:10;;;;;;;;;;;9.50;99.90;;;;;;5011403;28;20021;-70
2022/03/15 12:39:36;;;;;;;;;;;9.40;99.90;;;;;;4994001;28;19953;-68
2022/03/15 12:42:05;;;;;;;;;;;9.30;99.90;;;;;;5012233;28;20243;-69
2022/03/15 12:44:57;;;;;;;;;;;9.30;99.90;;;;;;5011491;28;19996;-69
2022/03/15 12:47:26;;;;;;;;;;;9.30;99.90;;;;;;5003782;28;20359;-70
2022/03/15 12:50:07;;;;;;;;;;;9.30;99.90;;;;;;4993094;28;20337;-69
2022/03/15 12:52:39;;;;;;;;;;;9.30;99.90;;;;;;5010599;28;19905;-68
2022/03/15 12:55:05;;;;;;;;;;;9.30;99.90;;;;;;4993791;28;19909;-68
2022/03/15 12:57:32;;;;;;;;;;;9.20;99.90;;;;;;4993153;28;20600;-69
2022/03/15 12:59:58;;;;;;;;;;;9.20;99.90;;;;;;4993895;28;19913;-68
2022/03/15 13:02:24;;;;;;;;;;;9.20;99.90;;;;;;5010472;28;19932;-67
2022/03/15 13:04:49;;;;;;;;;;;9.10;99.90;;;;;;5010443;28;19914;-60
2022/03/15 13:07:15;;;;;;;;;;;9.90;99.90;;;;;;5011159;28;19972;-60
2022/03/15 13:09:41;;;;;;;;;;;10.50;99.90;;;;;;5010968;28;19986;-61
2022/03/15 13:12:15;;;;;;;;;;;10.70;99.90;;;;;;4998634;28;19917;-60
2022/03/15 13:14:42;;;;;;;;;;;10.70;99.90;;;;;;4973881;28;19917;-60
2022/03/15 13:17:08;;;;;;;;;;;10.90;99.90;;;;;;4992014;28;20378;-69
2022/03/15 13:19:37;;;;;;;;;;;10.80;99.90;;;;;;4991399;28;19933;-68
2022/03/15 13:22:05;;;;;;;;;;;10.30;99.90;;;;;;4990858;28;19910;-68
2022/03/15 13:24:34;;;;;;;;;;;10.10;99.90;;;;;;4970885;28;20106;-69
2022/03/15 13:27:00;;;;;;;;;;;10.00;99.90;;;;;;4971836;28;19918;-69
2022/03/15 13:29:28;;;;;;;;;;;9.80;99.90;;;;;;4970945;28;19914;-68
2022/03/15 13:31:58;;;;;;;;;;;9.90;99.90;;;;;;4971125;28;19911;-68
2022/03/15 13:34:25;;;;;;;;;;;9.70;99.90;;;;;;4970366;28;20319;-69
2022/03/15 13:36:51;;;;;;;;;;;9.50;99.90;;;;;;4987054;28;19910;-68
2022/03/15 13:39:20;;;;;;;;;;;9.40;99.90;;;;;;4984064;28;20292;-68
2022/03/15 13:41:47;;;;;;;;;;;9.40;99.90;;;;;;4986868;28;19948;-67
2022/03/15 13:44:15;;;;;;;;;;;9.40;99.90;;;;;;4972439;28;19958;-74
2022/03/15 13:46:42;;;;;;;;;;;9.30;99.90;;;;;;4987961;28;19932;-68
2022/03/15 13:49:18;;;;;;;;;;;9.20;99.90;;;;;;4988860;28;20276;-67
2022/03/15 13:51:44;;;;;;;;;;;9.20;99.90;;;;;;4979895;28;19986;-68
2022/03/15 13:54:15;;;;;;;;;;;9.20;99.90;;;;;;4978116;28;19914;-70
2022/03/15 13:56:47;;;;;;;;;;;9.10;99.90;;;;;;4993084;28;20348;-69
2022/03/15 13:59:18;;;;;;;;;;;9.10;99.90;;;;;;4994118;28;19918;-67
2022/03/15 14:01:46;;;;;;;;;;;9.00;99.90;;;;;;4993635;28;19957;-70
2022/03/15 14:04:13;;;;;;;;;;;9.10;99.90;;;;;;4993905;28;20008;-69
2022/03/15 14:06:39;;;;;;;;;;;9.00;99.90;;;;;;4995364;28;20108;-67
2022/03/15 14:09:09;;;;;;;;;;;9.00;99.90;;;;;;4993765;28;19914;-67
2022/03/15 14:11:44;;;;;;;;;;;9.00;99.90;;;;;;4993268;28;19961;-67
2022/03/15 14:14:10;;;;;;;;;;;9.00;99.90;;;;;;4995025;28;19990;-67
2022/03/15 14:16:37;;;;;;;;;;;9.00;99.90;;;;;;4989747;28;20394;-67
2022/03/15 14:19:04;;;;;;;;;;;9.00;99.90;;;;;;4975927;28;20275;-68
2022/03/15 14:21:32;;;;;;;;;;;9.00;99.90;;;;;;4983835;28;19917;-69
2022/03/15 14:23:58;;;;;;;;;;;9.10;99.90;;;;;;4981765;28;20020;-68
2022/03/15 14:26:28;;;;;;;;;;;9.10;99.90;;;;;;4993945;28;20370;-68
2022/03/15 14:28:55;;;;;;;;;;;9.10;99.90;;;;;;4992370;28;19910;-69